メインページ
METAR-TAF:

METAR-TAF

空港 :

ブダペスト, ハンガリー

リスト・フェレンツ国際空港

緯度: 47-26N, 経度: 019-16E, 海抜: 151m

現時点の気象観測

当レポートは25分前の05:30(UTC)に作成
西の風 6kt
気温 17°C
湿度 94%
気圧 1016 hPa
視程10km以上
高度800ftの雲は散在している
高度2200ftの千切れ雲あり
小雨

METAR: LHBP 200530Z 28006KT 9999 -RA SCT008 BKN022 17/16 Q1016 RERA NOSIG

時間: 07:55 (05:55 UTC)

予報

当レポートは40分前の05:15(UTC)に作成
予報は20日の 06時(UTC)から 21日の 06時(UTC)まで有効
西/北西の風 8kt
視程10km以上
高度2500ftの雲は散在している
高度7000ftの千切れ雲あり
20日の 06時(UTC)から 20日の 10時(UTC)まで一時的に
高度600ftの雲は散在している
高度1400ftの千切れ雲あり
高度4000ftの曇り
20日の 10時(UTC)から 20日の 12時(UTC)まで徐々に
西/北西の風 16kt、最大26ktの突風を伴う
高度3300ftの雲は散在している
20日の 18時(UTC)から 20日の 21時(UTC)まで徐々に
北西の風 7kt
視程10km以上
1,500メートル以下は雲なし、積乱雲なし

TAF: LHBP 200515Z 2006/2106 30008KT 9999 SCT025 BKN070 TEMPO 2006/2010 RA SCT006 BKN014 OVC040 BECMG 2010/2012 30016G26KT SCT033 BECMG 2018/2021 32007KT CAVOK

4,000以上の空港の気象観測と天気予報(METAR報とTAF報)

利用可能な観測所は地図上に黄色い丸と赤い丸で示す。

丸の上にカーソルを重ねると観測所名を参照できる。

次にクリックすると気象観測と天気予報を参照できる。

マップの切り替え:黒色「×」印の緑ボタンをクリックして拡大、「-」印の緑ボタンをクリックして縮小、緑色の三角印をクリックして隣りの地図に切り替え


METAR-TAF: